Time;durP1;ratioP1;P1;durP2;ratioP2;P2;SDS_P1;SDS_P2;PMS_P1;PMS_P2;Temp;Humidity;BMP_temperature;BMP_pressure;BME280_temperature;BME280_humidity;BME280_pressure;Samples;Min_cycle;Max_cycle;Signal;HPM_P1;HPM_P2
2023/07/11 00:00:14;;;;;;;9.57;5.50;;;;;;;19.13;100.00;96173.94;1035114;28;20078;-73
2023/07/11 00:00:45;;;;;;;11.38;5.55;;;;;;;19.12;100.00;96171.59;1035851;28;20029;-73
2023/07/11 00:01:16;;;;;;;7.68;5.32;;;;;;;19.12;100.00;96176.94;1034902;28;20045;-73
2023/07/11 00:01:46;;;;;;;15.48;5.18;;;;;;;19.07;100.00;96165.31;1039199;28;20036;-73
2023/07/11 00:02:16;;;;;;;6.65;5.10;;;;;;;19.10;100.00;96173.78;1033364;28;20120;-74
2023/07/11 00:02:47;;;;;;;6.35;4.97;;;;;;;19.07;100.00;96175.16;1035066;28;20018;-72
2023/07/11 00:03:18;;;;;;;9.32;4.93;;;;;;;19.06;100.00;96173.59;1034932;28;20018;-73
2023/07/11 00:03:48;;;;;;;6.25;4.80;;;;;;;19.05;100.00;96178.16;1031440;28;20579;-73
2023/07/11 00:04:19;;;;;;;11.52;5.30;;;;;;;18.98;100.00;96164.50;1038906;28;20061;-75
2023/07/11 00:04:49;;;;;;;8.35;5.47;;;;;;;18.97;100.00;96170.91;1040906;28;20028;-74
2023/07/11 00:05:20;;;;;;;10.02;5.07;;;;;;;19.02;100.00;96173.44;1039120;28;20037;-73
2023/07/11 00:06:00;;;;;;;9.68;5.47;;;;;;;19.00;100.00;96170.28;1039174;28;20141;-73
2023/07/11 00:06:30;;;;;;;8.07;4.85;;;;;;;19.01;100.00;96176.38;1043236;28;20025;-74
2023/07/11 00:07:01;;;;;;;7.68;4.80;;;;;;;18.93;100.00;96159.31;1041722;28;20041;-73
2023/07/11 00:07:31;;;;;;;9.30;5.10;;;;;;;18.98;100.00;96177.00;1031927;28;20037;-74
2023/07/11 00:08:02;;;;;;;13.48;6.35;;;;;;;18.93;100.00;96171.81;1031382;28;20034;-74
2023/07/11 00:08:32;;;;;;;7.55;5.55;;;;;;;18.86;100.00;96166.16;1027421;28;20054;-74
2023/07/11 00:09:03;;;;;;;7.85;5.00;;;;;;;18.87;100.00;96163.19;1031143;28;20906;-73
2023/07/11 00:09:33;;;;;;;8.77;5.45;;;;;;;18.93;100.00;96169.94;1030714;28;20037;-73
2023/07/11 00:10:04;;;;;;;7.93;5.10;;;;;;;18.93;100.00;96169.94;1030468;28;20026;-74
2023/07/11 00:10:34;;;;;;;10.60;4.75;;;;;;;18.91;100.00;96172.09;1034374;28;20495;-73
2023/07/11 00:11:10;;;;;;;9.65;5.10;;;;;;;18.91;100.00;96172.09;1042512;28;20025;-73
2023/07/11 00:11:41;;;;;;;8.50;4.88;;;;;;;18.90;100.00;96175.09;1042996;28;20032;-73
2023/07/11 00:12:11;;;;;;;8.60;5.00;;;;;;;18.87;100.00;96165.84;1039096;28;20036;-73
2023/07/11 00:12:42;;;;;;;14.93;5.40;;;;;;;18.85;100.00;96165.38;1035868;28;20065;-73
2023/07/11 00:13:12;;;;;;;8.93;5.88;;;;;;;18.87;100.00;96176.47;1038520;28;20037;-73
2023/07/11 00:13:43;;;;;;;6.32;5.10;;;;;;;18.84;100.00;96172.53;1039285;28;20037;-72
2023/07/11 00:14:13;;;;;;;8.95;5.38;;;;;;;18.80;100.00;96165.50;1043289;28;20483;-73
2023/07/11 00:14:44;;;;;;;10.30;5.07;;;;;;;18.82;100.00;96177.41;1038741;28;20033;-74
2023/07/11 00:15:15;;;;;;;7.40;5.28;;;;;;;18.84;100.00;96174.41;1030865;28;20073;-73
2023/07/11 00:15:55;;;;;;;7.43;4.80;;;;;;;18.81;100.00;96177.69;1030880;28;20524;-74
2023/07/11 00:16:25;;;;;;;9.32;5.18;;;;;;;18.81;100.00;96178.50;1030921;28;20033;-74
2023/07/11 00:16:56;;;;;;;33.15;8.05;;;;;;;18.81;100.00;96183.00;1032252;28;20396;-74
2023/07/11 00:17:26;;;;;;;16.63;5.63;;;;;;;18.76;100.00;96169.84;1037647;28;20041;-73
2023/07/11 00:17:57;;;;;;;15.18;5.82;;;;;;;18.76;100.00;96164.53;1039010;28;20422;-72
2023/07/11 00:18:28;;;;;;;11.60;6.13;;;;;;;18.79;100.00;96172.69;1038652;28;20029;-73
2023/07/11 00:18:58;;;;;;;8.20;4.43;;;;;;;18.78;100.00;96170.34;1042790;28;20110;-73
2023/07/11 00:19:31;;;;;;;17.92;5.60;;;;;;;18.73;100.00;96165.13;1043263;28;20032;-73
2023/07/11 00:20:04;;;;;;;13.90;5.57;;;;;;;18.76;100.00;96169.84;1035027;28;20049;-73
2023/07/11 00:20:34;;;;;;;12.77;5.47;;;;;;;18.79;100.00;96171.91;1034907;28;20061;-73
2023/07/11 00:21:05;;;;;;;9.52;5.20;;;;;;;18.78;100.00;96173.78;1033559;28;20426;-73
2023/07/11 00:21:36;;;;;;;8.55;5.28;;;;;;;18.74;100.00;96172.03;1035267;28;20543;-73
2023/07/11 00:22:06;;;;;;;12.02;5.15;;;;;;;18.78;100.00;96173.00;1031435;28;20033;-73
2023/07/11 00:22:37;;;;;;;7.82;4.95;;;;;;;18.77;100.00;96177.50;1034986;28;20080;-74
2023/07/11 00:23:08;;;;;;;8.23;5.78;;;;;;;18.75;100.00;96169.06;1035051;28;20112;-73
2023/07/11 00:23:40;;;;;;;10.70;5.15;;;;;;;18.77;100.00;96176.72;1036402;28;20492;-73
2023/07/11 00:24:11;;;;;;;9.95;4.70;;;;;;;18.76;100.00;96175.16;1035809;28;20034;-73
2023/07/11 00:24:41;;;;;;;8.85;4.72;;;;;;;18.70;100.00;96173.69;1039072;28;20053;-73
2023/07/11 00:25:12;;;;;;;9.85;5.45;;;;;;;18.71;100.00;96175.25;1035237;28;20026;-74
2023/07/11 00:25:43;;;;;;;9.20;5.38;;;;;;;18.72;100.00;96166.25;1038103;28;20033;-73
2023/07/11 00:26:13;;;;;;;10.85;5.47;;;;;;;18.72;100.00;96174.22;1043487;28;20032;-73
2023/07/11 00:26:44;;;;;;;7.47;5.13;;;;;;;18.74;100.00;96177.34;1041106;28;20033;-74
2023/07/11 00:27:15;;;;;;;6.13;4.75;;;;;;;18.73;100.00;96170.47;1041019;28;20394;-74
2023/07/11 00:27:45;;;;;;;5.95;4.65;;;;;;;18.70;100.00;96176.34;1039287;28;20079;-73
2023/07/11 00:28:16;;;;;;;8.70;4.97;;;;;;;18.72;100.00;96177.66;1039112;28;20091;-74
2023/07/11 00:28:46;;;;;;;7.45;4.97;;;;;;;18.71;100.00;96175.25;1034796;28;20017;-74
2023/07/11 00:29:19;;;;;;;8.07;4.88;;;;;;;18.59;100.00;96157.22;1035084;28;20798;-74
2023/07/11 00:29:50;;;;;;;9.07;4.80;;;;;;;18.67;100.00;96171.63;1039882;28;20160;-74
2023/07/11 00:30:20;;;;;;;8.85;5.13;;;;;;;18.71;100.00;96181.38;1039397;28;20025;-72
2023/07/11 00:30:51;;;;;;;8.43;5.10;;;;;;;18.69;100.00;96180.09;1043042;28;20410;-75
2023/07/11 00:31:21;;;;;;;8.85;4.75;;;;;;;18.69;100.00;96180.88;1038163;28;20059;-73
2023/07/11 00:31:52;;;;;;;6.30;4.93;;;;;;;18.69;100.00;96174.78;1035056;28;20042;-74
2023/07/11 00:32:22;;;;;;;6.97;4.93;;;;;;;18.68;100.00;96179.31;1032459;28;20670;-73
2023/07/11 00:32:53;;;;;;;10.23;5.72;;;;;;;18.66;100.00;96183.38;1027046;28;20517;-73
2023/07/11 00:33:23;;;;;;;8.73;5.20;;;;;;;18.65;100.00;96174.59;1030749;28;20030;-73
2023/07/11 00:33:54;;;;;;;8.32;5.60;;;;;;;18.68;100.00;96178.50;1034909;28;20476;-73
2023/07/11 00:34:24;;;;;;;9.70;4.95;;;;;;;18.66;100.00;96176.16;1034857;28;20034;-75
2023/07/11 00:34:55;;;;;;;7.28;5.15;;;;;;;18.63;100.00;96165.38;1035130;28;20026;-73
2023/07/11 00:35:25;;;;;;;7.68;5.45;;;;;;;18.68;100.00;96179.31;1034877;28;20515;-74
2023/07/11 00:35:56;;;;;;;9.60;5.78;;;;;;;18.62;100.00;96164.56;1034922;28;20026;-73
2023/07/11 00:36:26;;;;;;;9.48;4.97;;;;;;;18.66;100.00;96175.38;1039029;28;20032;-73
2023/07/11 00:36:56;;;;;;;15.80;5.68;;;;;;;18.60;100.00;96172.84;1035010;28;20029;-74
2023/07/11 00:37:27;;;;;;;10.90;6.75;;;;;;;18.60;100.00;96164.88;1030738;28;20027;-73
2023/07/11 00:37:57;;;;;;;6.60;5.03;;;;;;;18.65;100.00;96169.28;1026689;28;20532;-73
2023/07/11 00:38:28;;;;;;;16.52;5.07;;;;;;;18.59;100.00;96165.19;1030839;28;20568;-73
2023/07/11 00:38:58;;;;;;;5.93;4.55;;;;;;;18.64;100.00;96172.25;1031505;28;20463;-74
2023/07/11 00:39:30;;;;;;;7.65;5.15;;;;;;;18.58;100.00;96163.63;1038922;28;20021;-74
2023/07/11 00:40:00;;;;;;;8.40;5.30;;;;;;;18.62;100.00;96169.91;1030637;28;20026;-72
2023/07/11 00:40:31;;;;;;;10.68;5.90;;;;;;;18.53;100.00;96161.84;1030858;28;20026;-73
2023/07/11 00:41:01;;;;;;;8.50;5.28;;;;;;;18.57;100.00;96168.13;1030309;28;20061;-73
2023/07/11 00:41:32;;;;;;;8.27;4.95;;;;;;;18.58;100.00;96169.72;1038676;28;20029;-73
2023/07/11 00:42:03;;;;;;;16.13;5.78;;;;;;;18.54;100.00;96171.41;1038898;28;20036;-73
2023/07/11 00:42:34;;;;;;;9.93;5.45;;;;;;;18.56;100.00;96174.53;1034656;28;20025;-74
2023/07/11 00:43:05;;;;;;;10.45;5.50;;;;;;;18.55;100.00;96175.63;1034914;28;20018;-73
2023/07/11 00:43:35;;;;;;;11.15;5.82;;;;;;;18.53;100.00;96169.81;1030821;28;20506;-73
2023/07/11 00:44:13;;;;;;;10.05;4.85;;;;;;;18.57;100.00;96172.66;1030713;28;20030;-74
2023/07/11 00:44:51;;;;;;;12.63;5.80;;;;;;;18.57;100.00;96176.09;1034869;28;20076;-74
2023/07/11 00:45:58;;;;;;;9.30;5.85;;;;;;;18.60;100.00;96183.47;1034807;28;20496;-73
2023/07/11 00:46:28;;;;;;;8.07;5.38;;;;;;;18.61;100.00;96174.44;1036890;28;20026;-74
2023/07/11 00:46:59;;;;;;;8.63;5.50;;;;;;;18.61;100.00;96170.97;1048044;28;20032;-73
2023/07/11 00:47:30;;;;;;;8.27;6.30;;;;;;;18.64;100.00;96181.00;1038027;28;20029;-73
2023/07/11 00:48:00;;;;;;;8.77;5.93;;;;;;;18.69;100.00;96174.78;1030838;28;20101;-75
2023/07/11 00:48:35;;;;;;;8.55;5.85;;;;;;;18.75;100.00;96168.28;1038909;28;20095;-74
2023/07/11 00:49:06;;;;;;;12.60;5.78;;;;;;;18.79;100.00;96178.00;1030905;28;20018;-75
2023/07/11 00:49:37;;;;;;;7.78;5.70;;;;;;;18.76;100.00;96160.00;1034884;28;20060;-74
2023/07/11 00:50:08;;;;;;;8.98;5.63;;;;;;;18.79;100.00;96170.03;1030803;28;20113;-74
2023/07/11 00:50:39;;;;;;;10.75;6.15;;;;;;;18.82;100.00;96169.41;1034931;28;20014;-73
2023/07/11 00:51:10;;;;;;;9.38;5.97;;;;;;;18.84;100.00;96166.44;1034159;28;20105;-75
2023/07/11 00:51:58;;;;;;;13.43;5.68;;;;;;;18.87;100.00;96168.50;1034746;28;20399;-74
2023/07/11 00:52:29;;;;;;;9.90;5.72;;;;;;;18.87;100.00;96165.84;1030801;28;20070;-74
2023/07/11 00:52:59;;;;;;;8.02;5.22;;;;;;;18.77;100.00;96155.47;1026800;28;20117;-73
2023/07/11 00:53:30;;;;;;;8.23;5.15;;;;;;;18.84;100.00;96161.13;1033067;28;20481;-73
2023/07/11 00:54:00;;;;;;;9.30;5.70;;;;;;;18.87;100.00;96171.16;1026974;28;20030;-74
2023/07/11 00:54:32;;;;;;;7.82;5.55;;;;;;;18.82;100.00;96158.00;1029215;28;20041;-74
2023/07/11 00:55:05;;;;;;;9.25;5.40;;;;;;;18.81;100.00;96162.53;1026742;28;20081;-73
2023/07/11 00:55:36;;;;;;;8.13;6.18;;;;;;;18.74;100.00;96142.78;1030798;28;20028;-74
2023/07/11 00:56:07;;;;;;;9.25;5.78;;;;;;;18.84;100.00;96161.13;1038713;28;20029;-74
2023/07/11 00:56:40;;;;;;;7.97;5.53;;;;;;;18.94;100.00;96166.19;1038866;28;20033;-74
2023/07/11 00:57:11;;;;;;;6.18;5.22;;;;;;;18.93;100.00;96159.31;1030839;28;20022;-75
2023/07/11 00:57:41;;;;;;;9.82;5.03;;;;;;;18.91;100.00;96158.81;1030661;28;20026;-73
2023/07/11 00:58:12;;;;;;;7.25;5.43;;;;;;;18.89;100.00;96161.00;1034845;28;20030;-74
2023/07/11 00:58:43;;;;;;;9.65;5.85;;;;;;;18.92;100.00;96167.59;1038852;28;20470;-74
2023/07/11 00:59:14;;;;;;;12.98;5.43;;;;;;;18.84;100.00;96159.25;1030767;28;20030;-75
2023/07/11 00:59:45;;;;;;;9.27;5.93;;;;;;;18.88;100.00;96167.44;1042863;28;20510;-74
2023/07/11 01:00:16;;;;;;;9.00;5.18;;;;;;;18.81;100.00;96154.56;1038967;28;20021;-74
2023/07/11 01:00:47;;;;;;;8.27;5.65;;;;;;;18.80;100.00;96157.50;1042995;28;20025;-72
2023/07/11 01:01:17;;;;;;;12.52;5.65;;;;;;;18.81;100.00;96161.72;1034016;28;20014;-73
2023/07/11 01:01:55;;;;;;;9.45;5.57;;;;;;;18.84;100.00;96166.44;1029388;28;20049;-73
2023/07/11 01:02:26;;;;;;;8.25;5.72;;;;;;;18.76;100.00;96154.69;1027940;28;20078;-74
2023/07/11 01:02:57;;;;;;;7.18;5.63;;;;;;;18.80;100.00;96162.81;1029444;28;20023;-73
2023/07/11 01:03:27;;;;;;;6.97;5.78;;;;;;;18.81;100.00;96164.38;1027813;28;20026;-73
2023/07/11 01:03:58;;;;;;;11.70;5.55;;;;;;;18.74;100.00;96161.38;1038690;28;20021;-73
2023/07/11 01:04:28;;;;;;;13.50;6.05;;;;;;;18.79;100.00;96163.94;1038204;28;20025;-73
2023/07/11 01:04:59;;;;;;;8.35;5.40;;;;;;;18.79;100.00;96163.94;1038650;28;20738;-72
2023/07/11 01:05:29;;;;;;;9.00;5.25;;;;;;;18.75;100.00;96162.97;1034728;28;20014;-74
2023/07/11 01:06:00;;;;;;;8.15;5.85;;;;;;;18.77;100.00;96160.78;1030910;28;20033;-73
2023/07/11 01:06:30;;;;;;;7.90;5.95;;;;;;;18.77;100.00;96161.56;1033954;28;20021;-74
2023/07/11 01:07:02;;;;;;;7.00;5.10;;;;;;;18.73;100.00;96151.84;1034837;28;20377;-73
2023/07/11 01:07:34;;;;;;;6.22;5.45;;;;;;;18.78;100.00;96159.72;1030796;28;20022;-74
2023/07/11 01:08:04;;;;;;;12.98;6.03;;;;;;;18.78;100.00;96157.03;1030441;28;20077;-74
2023/07/11 01:08:35;;;;;;;8.95;5.55;;;;;;;18.74;100.00;96156.06;1030764;28;20420;-73
2023/07/11 01:09:05;;;;;;;14.10;5.82;;;;;;;18.78;100.00;96157.03;1026645;28;20023;-73
2023/07/11 01:09:36;;;;;;;7.25;5.28;;;;;;;18.77;100.00;96163.44;1031447;28;20022;-74
2023/07/11 01:10:07;;;;;;;7.70;5.43;;;;;;;18.77;100.00;96150.13;1030636;28;20027;-74
2023/07/11 01:10:37;;;;;;;9.85;5.78;;;;;;;18.73;100.00;96155.28;1030782;28;20026;-73
2023/07/11 01:11:08;;;;;;;10.82;5.25;;;;;;;18.74;100.00;96162.16;1022038;28;20035;-74
2023/07/11 01:12:02;;;;;;;7.95;5.63;;;;;;;18.72;100.00;96158.25;1030063;28;20030;-73
2023/07/11 01:12:32;;;;;;;10.73;5.60;;;;;;;18.69;100.00;96158.84;1030700;28;20122;-74
2023/07/11 01:13:04;;;;;;;8.20;5.63;;;;;;;18.67;100.00;96155.69;1034990;28;20037;-73
2023/07/11 01:13:34;;;;;;;9.77;5.60;;;;;;;18.63;100.00;96152.06;1038747;28;20470;-73
2023/07/11 01:14:05;;;;;;;8.98;5.88;;;;;;;18.67;100.00;96151.16;1034864;28;20104;-73
2023/07/11 01:14:35;;;;;;;10.95;6.22;;;;;;;18.67;100.00;96153.03;1031133;28;20059;-72
2023/07/11 01:15:06;;;;;;;9.02;5.13;;;;;;;18.64;100.00;96156.28;1038903;28;20033;-74
2023/07/11 01:15:37;;;;;;;9.90;5.22;;;;;;;18.57;100.00;96146.88;1042876;28;20025;-73
2023/07/11 01:16:07;;;;;;;7.45;5.32;;;;;;;18.61;100.00;96163.78;1035033;28;20480;-73
2023/07/11 01:16:44;;;;;;;10.32;5.60;;;;;;;18.61;100.00;96163.00;1038573;28;20060;-70
2023/07/11 01:17:33;;;;;;;6.57;5.38;;;;;;;18.51;100.00;96137.47;1034571;28;20025;-73
2023/07/11 01:18:04;;;;;;;11.82;5.93;;;;;;;18.56;100.00;96160.47;1034679;28;20034;-74
2023/07/11 01:18:34;;;;;;;7.85;5.93;;;;;;;18.50;100.00;96149.16;1035437;28;20809;-74
2023/07/11 01:19:05;;;;;;;11.65;6.18;;;;;;;18.50;100.00;96149.16;1037484;28;20026;-74
2023/07/11 01:19:35;;;;;;;11.55;5.93;;;;;;;18.51;100.00;96147.28;1038736;28;20120;-73
2023/07/11 01:20:07;;;;;;;9.27;5.80;;;;;;;18.49;100.00;96150.25;1038864;28;20111;-74
2023/07/11 01:20:38;;;;;;;8.88;5.93;;;;;;;18.49;100.00;96150.25;1039609;28;20068;-73
2023/07/11 01:21:13;;;;;;;20.92;6.30;;;;;;;18.48;100.00;96148.69;1046598;28;20036;-73
2023/07/11 01:21:44;;;;;;;16.50;6.65;;;;;;;18.44;100.00;96142.41;1039618;28;20037;-74
2023/07/11 01:22:15;;;;;;;17.80;6.65;;;;;;;18.49;100.00;96154.81;1038666;28;20613;-73
2023/07/11 01:22:48;;;;;;;9.25;5.80;;;;;;;18.45;100.00;96154.63;1038853;28;20048;-73
2023/07/11 01:23:20;;;;;;;9.30;6.22;;;;;;;18.44;100.00;96147.72;1042483;28;20712;-74
2023/07/11 01:23:51;;;;;;;17.00;5.85;;;;;;;18.38;100.00;96144.41;1039901;28;20497;-74
2023/07/11 01:24:22;;;;;;;11.88;6.18;;;;;;;18.42;100.00;96147.25;1043658;28;20107;-74
2023/07/11 01:24:52;;;;;;;7.95;5.63;;;;;;;18.42;100.00;96154.44;1043329;28;20632;-74
2023/07/11 01:25:23;;;;;;;9.45;5.47;;;;;;;18.37;100.00;96145.47;1042744;28;20025;-74
2023/07/11 01:26:05;;;;;;;7.28;5.85;;;;;;;18.38;100.00;96148.94;1038992;28;20613;-74
2023/07/11 01:26:35;;;;;;;9.55;5.82;;;;;;;18.38;100.00;96146.28;1044609;28;20028;-73
2023/07/11 01:27:06;;;;;;;8.75;5.75;;;;;;;18.37;100.00;96147.34;1041863;28;20033;-74
2023/07/11 01:27:37;;;;;;;11.38;5.93;;;;;;;18.35;100.00;96150.31;1048640;28;20021;-73
2023/07/11 01:28:08;;;;;;;9.35;6.13;;;;;;;18.32;100.00;96139.53;1047135;28;20022;-74
2023/07/11 01:28:39;;;;;;;9.07;6.05;;;;;;;18.32;100.00;96140.31;1041490;28;20017;-74
2023/07/11 01:29:10;;;;;;;10.27;6.00;;;;;;;18.31;100.00;96138.75;1042741;28;20024;-73
2023/07/11 01:29:41;;;;;;;8.77;6.05;;;;;;;18.34;100.00;96142.66;1037256;28;20407;-74
2023/07/11 01:30:16;;;;;;;8.93;5.82;;;;;;;18.35;100.00;96144.22;1035179;28;20021;-73
2023/07/11 01:30:47;;;;;;;16.33;6.53;;;;;;;18.37;100.00;96144.69;1041094;28;20027;-73
2023/07/11 01:31:17;;;;;;;11.48;6.82;;;;;;;18.36;100.00;96146.56;1042916;28;20035;-73
2023/07/11 01:31:47;;;;;;;9.63;6.38;;;;;;;18.35;100.00;96142.34;1047211;28;20036;-71
2023/07/11 01:32:18;;;;;;;9.88;6.32;;;;;;;18.34;100.00;96132.00;1045003;28;20438;-72
2023/07/11 01:32:49;;;;;;;11.43;6.88;;;;;;;18.40;100.00;96138.78;1042823;28;20519;-73
2023/07/11 01:33:19;;;;;;;11.82;6.97;;;;;;;18.38;100.00;96138.31;1038615;28;20029;-73
2023/07/11 01:33:50;;;;;;;8.05;6.05;;;;;;;18.39;100.00;96139.88;1034267;28;20025;-72
2023/07/11 01:34:20;;;;;;;11.93;6.43;;;;;;;18.37;100.00;96131.41;1034733;28;20510;-74
2023/07/11 01:34:51;;;;;;;10.68;6.10;;;;;;;18.39;100.00;96129.25;1034635;28;20025;-72
2023/07/11 01:35:21;;;;;;;8.77;6.60;;;;;;;18.46;100.00;96139.47;1030765;28;20038;-72
2023/07/11 01:35:52;;;;;;;10.95;6.88;;;;;;;18.47;100.00;96136.47;1029357;28;20097;-72
2023/07/11 01:36:23;;;;;;;13.30;6.20;;;;;;;18.52;100.00;96136.38;1034426;28;20056;-72
2023/07/11 01:36:53;;;;;;;16.60;8.85;;;;;;;18.51;100.00;96131.34;1034586;28;20064;-72
2023/07/11 01:37:24;;;;;;;8.35;6.45;;;;;;;18.50;100.00;96143.84;1034408;28;20030;-72
2023/07/11 01:37:54;;;;;;;7.38;5.85;;;;;;;18.45;100.00;96140.56;1030935;28;20038;-73
2023/07/11 01:38:25;;;;;;;10.43;6.90;;;;;;;18.44;100.00;96131.78;1034476;28;20407;-72
2023/07/11 01:38:57;;;;;;;10.40;6.70;;;;;;;18.50;100.00;96135.88;1037686;28;20061;-72
2023/07/11 01:39:27;;;;;;;11.52;5.72;;;;;;;18.47;100.00;96131.16;1030826;28;20066;-73
2023/07/11 01:39:58;;;;;;;7.07;5.82;;;;;;;18.49;100.00;96139.63;1038691;28;20032;-73
2023/07/11 01:40:28;;;;;;;9.90;6.20;;;;;;;18.53;100.00;96135.28;1038838;28;20057;-73
2023/07/11 01:40:58;;;;;;;10.55;6.30;;;;;;;18.53;100.00;96131.84;1038393;28;20086;-73
2023/07/11 01:41:29;;;;;;;11.00;6.47;;;;;;;18.46;100.00;96126.94;1037775;28;20486;-74
2023/07/11 01:41:59;;;;;;;8.65;6.40;;;;;;;18.52;100.00;96133.72;1030517;28;20026;-73
2023/07/11 01:42:30;;;;;;;12.15;6.10;;;;;;;18.45;100.00;96125.38;1027995;28;20035;-73
2023/07/11 01:43:01;;;;;;;11.93;6.70;;;;;;;18.47;100.00;96136.47;1030723;28;20034;-74
2023/07/11 01:43:31;;;;;;;9.20;6.32;;;;;;;18.50;100.00;96135.09;1035871;28;20041;-72
2023/07/11 01:44:02;;;;;;;8.70;6.97;;;;;;;18.48;100.00;96132.75;1038124;28;20033;-73
2023/07/11 01:44:35;;;;;;;9.02;6.45;;;;;;;18.50;100.00;96129.78;1039422;28;20021;-73
2023/07/11 01:45:07;;;;;;;11.70;6.93;;;;;;;18.56;100.00;96134.66;1030390;28;20026;-73
2023/07/11 01:45:38;;;;;;;10.07;7.03;;;;;;;18.61;100.00;96131.09;1030384;28;20030;-72
2023/07/11 01:46:08;;;;;;;11.13;7.20;;;;;;;18.63;100.00;96136.91;1030603;28;20089;-73
2023/07/11 01:46:39;;;;;;;9.60;6.72;;;;;;;18.64;100.00;96133.16;1031016;28;20026;-73
2023/07/11 01:47:09;;;;;;;10.95;6.60;;;;;;;18.69;100.00;96137.56;1034580;28;20029;-73
2023/07/11 01:47:40;;;;;;;9.80;6.00;;;;;;;18.68;100.00;96135.97;1044933;28;20021;-71
2023/07/11 01:48:10;;;;;;;9.70;6.57;;;;;;;18.71;100.00;96140.69;1038640;28;20021;-72
2023/07/11 01:48:41;;;;;;;9.40;6.63;;;;;;;18.70;100.00;96144.44;1038589;28;20029;-74
2023/07/11 01:49:11;;;;;;;11.27;6.90;;;;;;;18.72;100.00;96137.00;1039410;28;20029;-73
2023/07/11 01:49:41;;;;;;;10.95;6.95;;;;;;;18.68;100.00;96130.66;1038633;28;20033;-72
2023/07/11 01:50:12;;;;;;;9.15;6.55;;;;;;;18.74;100.00;96134.78;1034712;28;20058;-74
2023/07/11 01:50:42;;;;;;;8.02;6.45;;;;;;;18.71;100.00;96133.53;1034514;28;20037;-73
2023/07/11 01:51:14;;;;;;;11.73;6.45;;;;;;;18.73;100.00;96133.25;1029404;28;20466;-73
2023/07/11 01:51:45;;;;;;;11.75;6.80;;;;;;;18.74;100.00;96135.56;1030774;28;20523;-73
2023/07/11 01:52:20;;;;;;;10.68;6.80;;;;;;;18.76;100.00;96141.38;1034629;28;20029;-73
2023/07/11 01:52:51;;;;;;;10.35;6.35;;;;;;;18.74;100.00;96138.22;1033996;28;20033;-73
2023/07/11 01:53:21;;;;;;;8.93;6.50;;;;;;;18.74;100.00;96134.78;1040075;28;20296;-73
2023/07/11 01:53:51;;;;;;;10.23;7.10;;;;;;;18.74;100.00;96140.13;1046835;28;20094;-73
2023/07/11 01:54:22;;;;;;;10.55;6.38;;;;;;;18.75;100.00;96136.38;1034259;28;20140;-74
2023/07/11 01:54:52;;;;;;;10.40;7.28;;;;;;;18.74;100.00;96137.44;1034378;28;20064;-73
2023/07/11 01:55:23;;;;;;;7.28;6.35;;;;;;;18.75;100.00;96133.72;1034535;28;20034;-75
2023/07/11 01:55:57;;;;;;;12.02;7.15;;;;;;;18.70;100.00;96123.19;1030399;28;20030;-74
2023/07/11 01:56:28;;;;;;;9.98;6.55;;;;;;;18.67;100.00;96129.09;1034475;28;20042;-73
2023/07/11 01:56:59;;;;;;;11.45;7.20;;;;;;;18.67;100.00;96134.41;1034482;28;20609;-73
2023/07/11 01:57:29;;;;;;;9.65;6.85;;;;;;;18.71;100.00;96135.38;1035291;28;20018;-73
2023/07/11 01:58:00;;;;;;;9.85;6.75;;;;;;;18.71;100.00;96136.19;1039233;28;20029;-73
2023/07/11 01:58:30;;;;;;;8.48;6.20;;;;;;;18.65;100.00;96125.97;1042973;28;20036;-73
2023/07/11 01:59:01;;;;;;;8.90;6.57;;;;;;;18.68;100.00;96136.78;1042625;28;20088;-74
2023/07/11 01:59:31;;;;;;;11.27;6.68;;;;;;;18.69;100.00;96135.69;1036757;28;20037;-73
2023/07/11 02:00:02;;;;;;;8.57;6.82;;;;;;;18.69;100.00;96127.72;1034356;28;20029;-74
2023/07/11 02:00:33;;;;;;;13.52;7.05;;;;;;;18.71;100.00;96135.38;1030706;28;20104;-74
2023/07/11 02:01:03;;;;;;;8.93;6.38;;;;;;;18.71;100.00;96130.88;1033030;28;20034;-72
2023/07/11 02:01:34;;;;;;;11.57;6.50;;;;;;;18.74;100.00;96126.81;1034392;28;20037;-75
2023/07/11 02:02:05;;;;;;;8.38;7.15;;;;;;;18.75;100.00;96131.06;1038527;28;20061;-72
2023/07/11 02:02:35;;;;;;;12.10;6.68;;;;;;;18.75;100.00;96125.75;1022481;29;20023;-74
2023/07/11 02:03:06;;;;;;;12.75;6.78;;;;;;;18.80;100.00;96125.59;1037561;28;20036;-74
2023/07/11 02:03:36;;;;;;;12.52;6.97;;;;;;;18.80;100.00;96126.38;1038879;28;20506;-73
2023/07/11 02:04:07;;;;;;;10.07;6.75;;;;;;;18.77;100.00;96118.22;1038694;28;20061;-73
2023/07/11 02:04:38;;;;;;;7.25;6.28;;;;;;;18.81;100.00;96124.50;1034393;28;20033;-73
2023/07/11 02:05:08;;;;;;;13.43;6.65;;;;;;;18.83;100.00;96123.13;1030133;28;20041;-72
2023/07/11 02:05:39;;;;;;;10.88;6.45;;;;;;;18.84;100.00;96118.59;1034618;28;20840;-73
2023/07/11 02:06:10;;;;;;;10.15;6.47;;;;;;;18.81;100.00;96119.19;1030265;28;20026;-73
2023/07/11 02:06:40;;;;;;;19.13;7.47;;;;;;;18.83;100.00;96120.47;1026637;28;20045;-72
2023/07/11 02:07:11;;;;;;;14.65;8.05;;;;;;;18.80;100.00;96122.94;1030519;28;20495;-73
2023/07/11 02:07:41;;;;;;;8.00;6.30;;;;;;;18.78;100.00;96117.16;1030346;28;20408;-74
2023/07/11 02:08:12;;;;;;;9.95;6.45;;;;;;;18.85;100.00;96125.50;1030211;28;20010;-74
2023/07/11 02:08:42;;;;;;;8.45;6.47;;;;;;;18.86;100.00;96121.72;1030176;28;20054;-72
2023/07/11 02:09:13;;;;;;;8.05;6.50;;;;;;;18.86;100.00;96119.06;1026187;28;20030;-73
2023/07/11 02:09:43;;;;;;;7.97;5.85;;;;;;;18.80;100.00;96114.97;1027827;28;20022;-73
2023/07/11 02:10:14;;;;;;;10.65;6.93;;;;;;;18.82;100.00;96118.91;1030406;28;20029;-73
2023/07/11 02:10:44;;;;;;;10.02;6.60;;;;;;;18.80;100.00;96115.75;1030176;28;20943;-73
2023/07/11 02:11:15;;;;;;;8.45;6.88;;;;;;;18.79;100.00;96113.41;1033529;28;20583;-72
2023/07/11 02:11:45;;;;;;;8.82;6.47;;;;;;;18.85;100.00;96117.50;1034231;28;20026;-74
2023/07/11 02:12:16;;;;;;;8.90;6.47;;;;;;;18.84;100.00;96122.03;1034477;28;20511;-73
2023/07/11 02:12:46;;;;;;;11.15;6.55;;;;;;;18.81;100.00;96113.88;1034350;28;20088;-73
2023/07/11 02:13:17;;;;;;;8.20;6.45;;;;;;;18.85;100.00;96117.50;1038243;28;20025;-73
2023/07/11 02:13:47;;;;;;;7.95;6.50;;;;;;;18.86;100.00;96126.28;1042540;28;20620;-72
2023/07/11 02:14:19;;;;;;;12.93;7.05;;;;;;;18.79;100.00;96108.09;1042719;28;20021;-72
2023/07/11 02:14:49;;;;;;;11.00;6.80;;;;;;;18.79;100.00;96116.84;1038532;28;20862;-73
2023/07/11 02:15:19;;;;;;;10.77;6.32;;;;;;;18.79;100.00;96111.53;1034510;28;20030;-74
2023/07/11 02:15:50;;;;;;;9.07;6.63;;;;;;;18.83;100.00;96120.47;1030271;28;20495;-73
2023/07/11 02:16:20;;;;;;;13.32;6.55;;;;;;;18.84;100.00;96121.25;1026402;28;20440;-73
2023/07/11 02:16:51;;;;;;;10.25;6.00;;;;;;;18.82;100.00;96120.78;1026541;28;20524;-73
2023/07/11 02:17:22;;;;;;;10.98;7.43;;;;;;;18.80;100.00;96118.41;1022444;28;20490;-73
2023/07/11 02:17:52;;;;;;;9.70;6.68;;;;;;;18.79;100.00;96116.06;1026366;28;20101;-71
2023/07/11 02:18:22;;;;;;;13.63;6.90;;;;;;;18.74;100.00;96116.19;1034193;28;20014;-72
2023/07/11 02:18:53;;;;;;;9.20;6.78;;;;;;;18.78;100.00;96117.94;1034442;28;20646;-72
2023/07/11 02:19:23;;;;;;;11.70;6.90;;;;;;;18.79;100.00;96121.38;1038558;28;20022;-72
2023/07/11 02:19:54;;;;;;;14.27;6.93;;;;;;;18.79;100.00;96116.06;1038312;28;20518;-74
2023/07/11 02:20:24;;;;;;;9.63;6.47;;;;;;;18.72;100.00;96111.19;1042515;28;20028;-72
2023/07/11 02:20:55;;;;;;;9.88;6.25;;;;;;;18.74;100.00;96114.31;1034393;28;20056;-73
2023/07/11 02:21:26;;;;;;;9.07;6.80;;;;;;;18.75;100.00;96113.25;1029593;28;20033;-74
2023/07/11 02:21:56;;;;;;;8.57;6.32;;;;;;;18.73;100.00;96120.72;1030414;28;20432;-74
2023/07/11 02:22:27;;;;;;;10.10;6.88;;;;;;;18.72;100.00;96118.38;1030173;28;20022;-73
2023/07/11 02:22:59;;;;;;;9.63;6.70;;;;;;;18.69;100.00;96119.75;1038203;28;20443;-74
2023/07/11 02:23:30;;;;;;;11.15;6.70;;;;;;;18.71;100.00;96120.22;1035105;28;20124;-73
2023/07/11 02:24:00;;;;;;;10.63;7.10;;;;;;;18.71;100.00;96114.09;1035349;28;20070;-74
2023/07/11 02:24:31;;;;;;;14.50;7.07;;;;;;;18.69;100.00;96114.41;1035199;28;20022;-73
2023/07/11 02:25:01;;;;;;;9.75;6.88;;;;;;;18.71;100.00;96116.75;1039166;28;20056;-73